sensor_id;sensor_type;location;lat;lon;timestamp;P1;durP1;ratioP1;P2;durP2;ratioP2
11854;SDS011;5987;53.140;8.904;2023-12-20T00:00:55;8.63;;;1.73;;
11854;SDS011;5987;53.140;8.904;2023-12-20T00:04:01;8.23;;;2.57;;
11854;SDS011;5987;53.140;8.904;2023-12-20T00:07:06;8.73;;;1.50;;
11854;SDS011;5987;53.140;8.904;2023-12-20T00:10:13;6.20;;;1.57;;
11854;SDS011;5987;53.140;8.904;2023-12-20T00:13:17;3.70;;;1.50;;
11854;SDS011;5987;53.140;8.904;2023-12-20T00:16:21;4.17;;;1.60;;
11854;SDS011;5987;53.140;8.904;2023-12-20T00:19:26;5.40;;;1.33;;
11854;SDS011;5987;53.140;8.904;2023-12-20T00:22:30;4.50;;;1.30;;
11854;SDS011;5987;53.140;8.904;2023-12-20T00:25:34;10.23;;;1.60;;
11854;SDS011;5987;53.140;8.904;2023-12-20T00:28:38;5.90;;;1.73;;
11854;SDS011;5987;53.140;8.904;2023-12-20T00:31:42;6.93;;;1.60;;
11854;SDS011;5987;53.140;8.904;2023-12-20T00:34:48;5.83;;;2.03;;
11854;SDS011;5987;53.140;8.904;2023-12-20T00:37:52;9.43;;;1.70;;
11854;SDS011;5987;53.140;8.904;2023-12-20T00:40:55;6.43;;;2.20;;
11854;SDS011;5987;53.140;8.904;2023-12-20T00:43:59;13.43;;;2.53;;
11854;SDS011;5987;53.140;8.904;2023-12-20T00:47:03;8.60;;;1.57;;
11854;SDS011;5987;53.140;8.904;2023-12-20T00:50:09;9.43;;;1.50;;
11854;SDS011;5987;53.140;8.904;2023-12-20T00:53:13;3.77;;;1.13;;
11854;SDS011;5987;53.140;8.904;2023-12-20T00:56:16;4.80;;;1.50;;
11854;SDS011;5987;53.140;8.904;2023-12-20T00:59:20;4.10;;;1.13;;
11854;SDS011;5987;53.140;8.904;2023-12-20T01:02:24;9.97;;;1.57;;
11854;SDS011;5987;53.140;8.904;2023-12-20T01:05:29;7.20;;;1.87;;
11854;SDS011;5987;53.140;8.904;2023-12-20T01:08:33;4.37;;;1.30;;
11854;SDS011;5987;53.140;8.904;2023-12-20T01:11:37;8.73;;;1.50;;
11854;SDS011;5987;53.140;8.904;2023-12-20T01:14:41;8.17;;;1.60;;
11854;SDS011;5987;53.140;8.904;2023-12-20T01:17:44;7.87;;;1.40;;
11854;SDS011;5987;53.140;8.904;2023-12-20T01:20:50;15.20;;;1.93;;
11854;SDS011;5987;53.140;8.904;2023-12-20T01:23:54;11.43;;;1.97;;
11854;SDS011;5987;53.140;8.904;2023-12-20T01:26:58;3.33;;;1.73;;
11854;SDS011;5987;53.140;8.904;2023-12-20T01:30:02;6.30;;;1.60;;
11854;SDS011;5987;53.140;8.904;2023-12-20T01:33:06;12.17;;;1.50;;
11854;SDS011;5987;53.140;8.904;2023-12-20T01:36:12;3.27;;;1.43;;
11854;SDS011;5987;53.140;8.904;2023-12-20T01:39:16;7.20;;;1.87;;
11854;SDS011;5987;53.140;8.904;2023-12-20T01:42:30;7.63;;;1.90;;
11854;SDS011;5987;53.140;8.904;2023-12-20T01:45:34;7.40;;;1.60;;
11854;SDS011;5987;53.140;8.904;2023-12-20T01:48:38;8.10;;;2.77;;
11854;SDS011;5987;53.140;8.904;2023-12-20T01:51:43;6.87;;;1.80;;
11854;SDS011;5987;53.140;8.904;2023-12-20T01:54:48;5.40;;;1.67;;
11854;SDS011;5987;53.140;8.904;2023-12-20T01:57:52;10.90;;;2.50;;
11854;SDS011;5987;53.140;8.904;2023-12-20T02:00:57;13.10;;;2.30;;
11854;SDS011;5987;53.140;8.904;2023-12-20T02:04:01;10.83;;;2.37;;
11854;SDS011;5987;53.140;8.904;2023-12-20T02:07:07;11.10;;;2.77;;
11854;SDS011;5987;53.140;8.904;2023-12-20T02:10:14;7.83;;;2.27;;
11854;SDS011;5987;53.140;8.904;2023-12-20T02:13:19;6.67;;;1.87;;
11854;SDS011;5987;53.140;8.904;2023-12-20T02:16:23;4.30;;;1.27;;
11854;SDS011;5987;53.140;8.904;2023-12-20T02:19:27;4.73;;;1.20;;
11854;SDS011;5987;53.140;8.904;2023-12-20T02:22:32;6.83;;;2.10;;
11854;SDS011;5987;53.140;8.904;2023-12-20T02:25:37;9.70;;;2.10;;
11854;SDS011;5987;53.140;8.904;2023-12-20T02:28:40;7.10;;;2.70;;
11854;SDS011;5987;53.140;8.904;2023-12-20T02:31:45;7.57;;;1.73;;
11854;SDS011;5987;53.140;8.904;2023-12-20T02:34:49;5.80;;;1.80;;
11854;SDS011;5987;53.140;8.904;2023-12-20T02:37:54;13.70;;;2.03;;
11854;SDS011;5987;53.140;8.904;2023-12-20T02:40:58;4.47;;;1.40;;
11854;SDS011;5987;53.140;8.904;2023-12-20T02:44:03;11.60;;;1.93;;
11854;SDS011;5987;53.140;8.904;2023-12-20T02:47:07;3.97;;;1.50;;
11854;SDS011;5987;53.140;8.904;2023-12-20T02:50:11;4.73;;;1.87;;
11854;SDS011;5987;53.140;8.904;2023-12-20T02:53:16;6.30;;;1.70;;
11854;SDS011;5987;53.140;8.904;2023-12-20T02:56:20;6.60;;;2.07;;
11854;SDS011;5987;53.140;8.904;2023-12-20T02:59:24;7.53;;;2.27;;
11854;SDS011;5987;53.140;8.904;2023-12-20T03:02:28;12.47;;;2.50;;
11854;SDS011;5987;53.140;8.904;2023-12-20T03:05:32;8.23;;;2.30;;
11854;SDS011;5987;53.140;8.904;2023-12-20T03:08:37;8.80;;;2.33;;
11854;SDS011;5987;53.140;8.904;2023-12-20T03:11:42;8.87;;;2.03;;
11854;SDS011;5987;53.140;8.904;2023-12-20T03:14:47;3.87;;;1.97;;
11854;SDS011;5987;53.140;8.904;2023-12-20T03:17:51;7.13;;;1.87;;
11854;SDS011;5987;53.140;8.904;2023-12-20T03:20:55;6.47;;;1.80;;
11854;SDS011;5987;53.140;8.904;2023-12-20T03:24:01;10.93;;;1.73;;
11854;SDS011;5987;53.140;8.904;2023-12-20T03:27:04;11.43;;;1.93;;
11854;SDS011;5987;53.140;8.904;2023-12-20T03:30:10;5.43;;;1.73;;
11854;SDS011;5987;53.140;8.904;2023-12-20T03:33:15;7.77;;;2.53;;
11854;SDS011;5987;53.140;8.904;2023-12-20T03:36:19;4.90;;;1.60;;
11854;SDS011;5987;53.140;8.904;2023-12-20T03:39:25;9.50;;;2.07;;
11854;SDS011;5987;53.140;8.904;2023-12-20T03:42:29;12.03;;;2.67;;
11854;SDS011;5987;53.140;8.904;2023-12-20T03:45:33;6.77;;;1.67;;
11854;SDS011;5987;53.140;8.904;2023-12-20T03:48:36;6.73;;;1.80;;
11854;SDS011;5987;53.140;8.904;2023-12-20T03:51:40;7.90;;;2.03;;
11854;SDS011;5987;53.140;8.904;2023-12-20T03:54:46;6.90;;;1.80;;
11854;SDS011;5987;53.140;8.904;2023-12-20T03:57:50;5.23;;;2.13;;
11854;SDS011;5987;53.140;8.904;2023-12-20T04:00:54;7.30;;;2.33;;
11854;SDS011;5987;53.140;8.904;2023-12-20T04:03:58;10.13;;;2.73;;
11854;SDS011;5987;53.140;8.904;2023-12-20T04:07:02;12.93;;;2.67;;
11854;SDS011;5987;53.140;8.904;2023-12-20T04:10:08;9.97;;;3.37;;
11854;SDS011;5987;53.140;8.904;2023-12-20T04:13:12;10.23;;;2.27;;
11854;SDS011;5987;53.140;8.904;2023-12-20T04:16:16;6.37;;;2.73;;
11854;SDS011;5987;53.140;8.904;2023-12-20T04:19:20;5.93;;;2.27;;
11854;SDS011;5987;53.140;8.904;2023-12-20T04:22:24;13.27;;;2.43;;
11854;SDS011;5987;53.140;8.904;2023-12-20T04:25:29;13.03;;;2.23;;
11854;SDS011;5987;53.140;8.904;2023-12-20T04:28:33;5.80;;;2.10;;
11854;SDS011;5987;53.140;8.904;2023-12-20T04:31:37;12.93;;;3.43;;
11854;SDS011;5987;53.140;8.904;2023-12-20T04:34:41;10.23;;;2.47;;
11854;SDS011;5987;53.140;8.904;2023-12-20T04:37:44;11.67;;;2.30;;
11854;SDS011;5987;53.140;8.904;2023-12-20T04:40:52;7.63;;;2.60;;
11854;SDS011;5987;53.140;8.904;2023-12-20T04:43:56;12.83;;;3.00;;
11854;SDS011;5987;53.140;8.904;2023-12-20T04:46:59;9.80;;;2.23;;
11854;SDS011;5987;53.140;8.904;2023-12-20T04:50:04;7.00;;;2.47;;
11854;SDS011;5987;53.140;8.904;2023-12-20T04:53:09;9.93;;;3.03;;
11854;SDS011;5987;53.140;8.904;2023-12-20T04:56:15;3.77;;;2.07;;
11854;SDS011;5987;53.140;8.904;2023-12-20T04:59:18;10.73;;;3.20;;
11854;SDS011;5987;53.140;8.904;2023-12-20T05:02:22;9.27;;;2.67;;
11854;SDS011;5987;53.140;8.904;2023-12-20T05:05:26;7.57;;;2.20;;
11854;SDS011;5987;53.140;8.904;2023-12-20T05:08:30;9.37;;;2.57;;
11854;SDS011;5987;53.140;8.904;2023-12-20T05:11:35;10.83;;;3.03;;
11854;SDS011;5987;53.140;8.904;2023-12-20T05:14:39;7.70;;;2.43;;
11854;SDS011;5987;53.140;8.904;2023-12-20T05:17:43;11.17;;;2.83;;
11854;SDS011;5987;53.140;8.904;2023-12-20T05:20:47;9.70;;;3.00;;
11854;SDS011;5987;53.140;8.904;2023-12-20T05:23:51;10.17;;;3.10;;
11854;SDS011;5987;53.140;8.904;2023-12-20T05:26:57;12.10;;;3.47;;
11854;SDS011;5987;53.140;8.904;2023-12-20T05:30:00;10.03;;;2.27;;
11854;SDS011;5987;53.140;8.904;2023-12-20T05:33:06;14.57;;;3.20;;
11854;SDS011;5987;53.140;8.904;2023-12-20T05:36:10;18.33;;;4.00;;
11854;SDS011;5987;53.140;8.904;2023-12-20T05:39:16;10.03;;;3.13;;
11854;SDS011;5987;53.140;8.904;2023-12-20T05:42:22;6.20;;;1.93;;
11854;SDS011;5987;53.140;8.904;2023-12-20T05:45:25;10.00;;;2.13;;
11854;SDS011;5987;53.140;8.904;2023-12-20T05:48:29;5.93;;;2.00;;
11854;SDS011;5987;53.140;8.904;2023-12-20T05:51:33;9.73;;;2.17;;
11854;SDS011;5987;53.140;8.904;2023-12-20T05:54:37;11.43;;;2.43;;
11854;SDS011;5987;53.140;8.904;2023-12-20T05:57:42;7.10;;;1.90;;
11854;SDS011;5987;53.140;8.904;2023-12-20T06:00:47;10.83;;;3.17;;
11854;SDS011;5987;53.140;8.904;2023-12-20T06:03:51;13.63;;;2.73;;
11854;SDS011;5987;53.140;8.904;2023-12-20T06:06:55;6.63;;;2.83;;
11854;SDS011;5987;53.140;8.904;2023-12-20T06:09:59;10.47;;;2.80;;
11854;SDS011;5987;53.140;8.904;2023-12-20T06:13:05;13.83;;;2.70;;
11854;SDS011;5987;53.140;8.904;2023-12-20T06:16:09;9.83;;;2.10;;
11854;SDS011;5987;53.140;8.904;2023-12-20T06:19:13;9.70;;;2.87;;
11854;SDS011;5987;53.140;8.904;2023-12-20T06:22:17;10.33;;;3.13;;
11854;SDS011;5987;53.140;8.904;2023-12-20T06:25:21;15.23;;;2.80;;
11854;SDS011;5987;53.140;8.904;2023-12-20T06:28:26;10.20;;;2.60;;
11854;SDS011;5987;53.140;8.904;2023-12-20T06:31:30;13.53;;;2.90;;
11854;SDS011;5987;53.140;8.904;2023-12-20T06:34:34;13.80;;;2.30;;
11854;SDS011;5987;53.140;8.904;2023-12-20T06:37:39;18.03;;;2.93;;
11854;SDS011;5987;53.140;8.904;2023-12-20T06:40:44;11.30;;;2.23;;
11854;SDS011;5987;53.140;8.904;2023-12-20T06:43:50;15.97;;;3.13;;
11854;SDS011;5987;53.140;8.904;2023-12-20T06:46:54;13.27;;;3.00;;
11854;SDS011;5987;53.140;8.904;2023-12-20T06:49:58;11.93;;;3.50;;
11854;SDS011;5987;53.140;8.904;2023-12-20T06:53:03;13.43;;;3.07;;
11854;SDS011;5987;53.140;8.904;2023-12-20T06:56:10;12.63;;;3.03;;
11854;SDS011;5987;53.140;8.904;2023-12-20T06:59:20;11.27;;;2.80;;
11854;SDS011;5987;53.140;8.904;2023-12-20T07:02:24;12.40;;;2.97;;
11854;SDS011;5987;53.140;8.904;2023-12-20T07:05:30;11.67;;;3.17;;
11854;SDS011;5987;53.140;8.904;2023-12-20T07:08:34;15.53;;;4.27;;
11854;SDS011;5987;53.140;8.904;2023-12-20T07:11:38;16.07;;;2.83;;
11854;SDS011;5987;53.140;8.904;2023-12-20T07:14:44;12.10;;;3.73;;
11854;SDS011;5987;53.140;8.904;2023-12-20T07:17:47;9.93;;;2.87;;
11854;SDS011;5987;53.140;8.904;2023-12-20T07:20:51;13.57;;;2.80;;
11854;SDS011;5987;53.140;8.904;2023-12-20T07:23:56;12.27;;;3.10;;
11854;SDS011;5987;53.140;8.904;2023-12-20T07:27:00;14.37;;;3.73;;
11854;SDS011;5987;53.140;8.904;2023-12-20T07:30:07;12.73;;;2.60;;
11854;SDS011;5987;53.140;8.904;2023-12-20T07:33:13;9.03;;;2.50;;
11854;SDS011;5987;53.140;8.904;2023-12-20T07:36:17;8.63;;;2.33;;
11854;SDS011;5987;53.140;8.904;2023-12-20T07:39:22;14.63;;;3.00;;
11854;SDS011;5987;53.140;8.904;2023-12-20T07:42:26;6.90;;;2.87;;
11854;SDS011;5987;53.140;8.904;2023-12-20T07:45:31;12.67;;;3.70;;
11854;SDS011;5987;53.140;8.904;2023-12-20T07:48:35;9.97;;;3.33;;
11854;SDS011;5987;53.140;8.904;2023-12-20T07:51:43;18.60;;;3.50;;
11854;SDS011;5987;53.140;8.904;2023-12-20T07:54:47;6.93;;;2.33;;
11854;SDS011;5987;53.140;8.904;2023-12-20T07:57:51;14.53;;;2.37;;
11854;SDS011;5987;53.140;8.904;2023-12-20T08:00:56;9.90;;;3.03;;
11854;SDS011;5987;53.140;8.904;2023-12-20T08:04:01;9.20;;;2.73;;
11854;SDS011;5987;53.140;8.904;2023-12-20T08:07:05;6.93;;;2.63;;
11854;SDS011;5987;53.140;8.904;2023-12-20T08:10:09;12.63;;;3.50;;
11854;SDS011;5987;53.140;8.904;2023-12-20T08:13:15;12.40;;;3.17;;
11854;SDS011;5987;53.140;8.904;2023-12-20T08:16:21;13.37;;;3.07;;
11854;SDS011;5987;53.140;8.904;2023-12-20T08:19:25;11.47;;;2.93;;
11854;SDS011;5987;53.140;8.904;2023-12-20T08:22:28;16.10;;;3.23;;
11854;SDS011;5987;53.140;8.904;2023-12-20T08:25:32;15.33;;;3.33;;
11854;SDS011;5987;53.140;8.904;2023-12-20T08:28:36;13.53;;;3.10;;
11854;SDS011;5987;53.140;8.904;2023-12-20T08:31:42;11.77;;;3.30;;
11854;SDS011;5987;53.140;8.904;2023-12-20T08:34:46;9.23;;;3.30;;
11854;SDS011;5987;53.140;8.904;2023-12-20T08:37:50;9.07;;;2.40;;
11854;SDS011;5987;53.140;8.904;2023-12-20T08:40:54;10.97;;;3.10;;
11854;SDS011;5987;53.140;8.904;2023-12-20T08:43:57;11.53;;;3.10;;
11854;SDS011;5987;53.140;8.904;2023-12-20T08:47:03;8.97;;;2.77;;
11854;SDS011;5987;53.140;8.904;2023-12-20T08:50:07;9.60;;;2.60;;
11854;SDS011;5987;53.140;8.904;2023-12-20T08:53:12;11.73;;;3.73;;
11854;SDS011;5987;53.140;8.904;2023-12-20T08:56:17;12.60;;;2.67;;
11854;SDS011;5987;53.140;8.904;2023-12-20T08:59:21;10.03;;;2.33;;
11854;SDS011;5987;53.140;8.904;2023-12-20T09:02:26;10.20;;;2.90;;
11854;SDS011;5987;53.140;8.904;2023-12-20T09:05:30;8.77;;;2.47;;
11854;SDS011;5987;53.140;8.904;2023-12-20T09:08:34;11.13;;;3.70;;
11854;SDS011;5987;53.140;8.904;2023-12-20T09:11:38;11.90;;;2.37;;
11854;SDS011;5987;53.140;8.904;2023-12-20T09:14:42;10.50;;;2.10;;
11854;SDS011;5987;53.140;8.904;2023-12-20T09:17:48;7.07;;;2.00;;
11854;SDS011;5987;53.140;8.904;2023-12-20T09:20:52;8.97;;;2.00;;
11854;SDS011;5987;53.140;8.904;2023-12-20T09:23:56;3.47;;;1.70;;
11854;SDS011;5987;53.140;8.904;2023-12-20T09:27:00;9.00;;;2.13;;
11854;SDS011;5987;53.140;8.904;2023-12-20T09:30:04;7.30;;;2.97;;
11854;SDS011;5987;53.140;8.904;2023-12-20T09:33:10;9.80;;;2.70;;
11854;SDS011;5987;53.140;8.904;2023-12-20T09:36:15;7.97;;;2.27;;
11854;SDS011;5987;53.140;8.904;2023-12-20T09:39:19;7.63;;;2.10;;
11854;SDS011;5987;53.140;8.904;2023-12-20T09:42:27;12.27;;;3.40;;
11854;SDS011;5987;53.140;8.904;2023-12-20T09:45:45;6.40;;;2.47;;
11854;SDS011;5987;53.140;8.904;2023-12-20T09:48:52;5.27;;;1.60;;
11854;SDS011;5987;53.140;8.904;2023-12-20T09:51:57;1.50;;;0.90;;
11854;SDS011;5987;53.140;8.904;2023-12-20T09:55:04;3.07;;;0.73;;
11854;SDS011;5987;53.140;8.904;2023-12-20T09:58:11;1.37;;;0.87;;
11854;SDS011;5987;53.140;8.904;2023-12-20T10:01:15;1.87;;;0.70;;
11854;SDS011;5987;53.140;8.904;2023-12-20T10:04:22;3.77;;;0.80;;
11854;SDS011;5987;53.140;8.904;2023-12-20T10:07:31;6.60;;;1.43;;
11854;SDS011;5987;53.140;8.904;2023-12-20T10:10:35;4.80;;;1.27;;
11854;SDS011;5987;53.140;8.904;2023-12-20T10:13:49;2.30;;;0.60;;
11854;SDS011;5987;53.140;8.904;2023-12-20T10:16:53;5.10;;;0.80;;
11854;SDS011;5987;53.140;8.904;2023-12-20T10:20:07;5.80;;;0.80;;
11854;SDS011;5987;53.140;8.904;2023-12-20T10:23:13;2.63;;;0.97;;
11854;SDS011;5987;53.140;8.904;2023-12-20T10:26:19;6.13;;;0.93;;
11854;SDS011;5987;53.140;8.904;2023-12-20T10:29:24;5.27;;;1.00;;
11854;SDS011;5987;53.140;8.904;2023-12-20T10:32:28;1.80;;;0.90;;
11854;SDS011;5987;53.140;8.904;2023-12-20T10:35:34;5.67;;;1.20;;
11854;SDS011;5987;53.140;8.904;2023-12-20T10:38:38;5.10;;;1.30;;
11854;SDS011;5987;53.140;8.904;2023-12-20T10:41:45;2.80;;;1.00;;
11854;SDS011;5987;53.140;8.904;2023-12-20T10:44:50;1.87;;;0.63;;
11854;SDS011;5987;53.140;8.904;2023-12-20T10:47:55;5.13;;;1.63;;
11854;SDS011;5987;53.140;8.904;2023-12-20T10:51:03;2.30;;;0.90;;
11854;SDS011;5987;53.140;8.904;2023-12-20T10:54:09;4.60;;;0.97;;
11854;SDS011;5987;53.140;8.904;2023-12-20T10:57:13;8.30;;;1.23;;
11854;SDS011;5987;53.140;8.904;2023-12-20T11:00:21;2.97;;;1.10;;
11854;SDS011;5987;53.140;8.904;2023-12-20T11:03:26;6.10;;;1.07;;
11854;SDS011;5987;53.140;8.904;2023-12-20T11:06:39;3.97;;;1.03;;
11854;SDS011;5987;53.140;8.904;2023-12-20T11:09:54;1.67;;;0.70;;
11854;SDS011;5987;53.140;8.904;2023-12-20T11:13:06;2.13;;;1.43;;
11854;SDS011;5987;53.140;8.904;2023-12-20T11:16:19;3.20;;;0.70;;
11854;SDS011;5987;53.140;8.904;2023-12-20T11:19:26;2.87;;;0.97;;
11854;SDS011;5987;53.140;8.904;2023-12-20T11:22:32;5.53;;;0.90;;
11854;SDS011;5987;53.140;8.904;2023-12-20T11:25:47;2.90;;;0.70;;
11854;SDS011;5987;53.140;8.904;2023-12-20T11:28:59;5.70;;;0.83;;
11854;SDS011;5987;53.140;8.904;2023-12-20T11:32:36;3.63;;;1.50;;
11854;SDS011;5987;53.140;8.904;2023-12-20T11:35:42;3.27;;;1.00;;
11854;SDS011;5987;53.140;8.904;2023-12-20T11:38:57;3.97;;;0.70;;
11854;SDS011;5987;53.140;8.904;2023-12-20T11:42:04;3.80;;;0.90;;
11854;SDS011;5987;53.140;8.904;2023-12-20T11:45:09;3.77;;;1.20;;
11854;SDS011;5987;53.140;8.904;2023-12-20T11:48:16;3.87;;;1.07;;
11854;SDS011;5987;53.140;8.904;2023-12-20T11:51:21;4.03;;;1.37;;
11854;SDS011;5987;53.140;8.904;2023-12-20T11:54:31;6.43;;;0.90;;
11854;SDS011;5987;53.140;8.904;2023-12-20T11:57:35;3.33;;;1.20;;
11854;SDS011;5987;53.140;8.904;2023-12-20T12:00:39;8.47;;;0.93;;
11854;SDS011;5987;53.140;8.904;2023-12-20T12:03:44;6.87;;;1.97;;
11854;SDS011;5987;53.140;8.904;2023-12-20T12:06:49;6.63;;;1.23;;
11854;SDS011;5987;53.140;8.904;2023-12-20T12:09:54;6.77;;;1.33;;
11854;SDS011;5987;53.140;8.904;2023-12-20T12:12:58;2.73;;;1.13;;
11854;SDS011;5987;53.140;8.904;2023-12-20T12:16:05;7.30;;;2.23;;
11854;SDS011;5987;53.140;8.904;2023-12-20T12:19:19;6.47;;;1.73;;
11854;SDS011;5987;53.140;8.904;2023-12-20T12:22:26;10.00;;;1.60;;
11854;SDS011;5987;53.140;8.904;2023-12-20T12:25:31;5.90;;;1.50;;
11854;SDS011;5987;53.140;8.904;2023-12-20T12:28:43;5.83;;;1.97;;
11854;SDS011;5987;53.140;8.904;2023-12-20T12:31:50;3.87;;;1.23;;
11854;SDS011;5987;53.140;8.904;2023-12-20T12:34:54;9.20;;;1.10;;
11854;SDS011;5987;53.140;8.904;2023-12-20T12:37:58;1.50;;;0.93;;
11854;SDS011;5987;53.140;8.904;2023-12-20T12:41:06;3.57;;;0.57;;
11854;SDS011;5987;53.140;8.904;2023-12-20T12:44:11;4.70;;;0.77;;
11854;SDS011;5987;53.140;8.904;2023-12-20T12:47:18;4.07;;;1.30;;
11854;SDS011;5987;53.140;8.904;2023-12-20T12:50:22;6.13;;;0.90;;
11854;SDS011;5987;53.140;8.904;2023-12-20T12:53:26;6.60;;;1.47;;
11854;SDS011;5987;53.140;8.904;2023-12-20T12:56:32;4.73;;;1.40;;
11854;SDS011;5987;53.140;8.904;2023-12-20T12:59:36;9.57;;;1.60;;
11854;SDS011;5987;53.140;8.904;2023-12-20T13:02:41;5.70;;;1.47;;
11854;SDS011;5987;53.140;8.904;2023-12-20T13:05:45;10.43;;;1.80;;
11854;SDS011;5987;53.140;8.904;2023-12-20T13:08:49;7.93;;;1.27;;
11854;SDS011;5987;53.140;8.904;2023-12-20T13:11:55;6.60;;;1.30;;
11854;SDS011;5987;53.140;8.904;2023-12-20T13:14:59;5.27;;;1.93;;
11854;SDS011;5987;53.140;8.904;2023-12-20T13:18:03;8.43;;;1.73;;
11854;SDS011;5987;53.140;8.904;2023-12-20T13:21:08;9.90;;;2.23;;
11854;SDS011;5987;53.140;8.904;2023-12-20T13:24:12;9.33;;;1.90;;
11854;SDS011;5987;53.140;8.904;2023-12-20T13:27:17;10.97;;;2.27;;
11854;SDS011;5987;53.140;8.904;2023-12-20T13:30:21;15.50;;;2.13;;
11854;SDS011;5987;53.140;8.904;2023-12-20T13:33:25;5.47;;;1.80;;
11854;SDS011;5987;53.140;8.904;2023-12-20T13:36:29;7.27;;;2.23;;
11854;SDS011;5987;53.140;8.904;2023-12-20T13:39:33;7.33;;;2.77;;
11854;SDS011;5987;53.140;8.904;2023-12-20T13:42:38;10.80;;;2.07;;
11854;SDS011;5987;53.140;8.904;2023-12-20T13:45:46;12.70;;;2.47;;
11854;SDS011;5987;53.140;8.904;2023-12-20T13:48:50;11.73;;;3.43;;
11854;SDS011;5987;53.140;8.904;2023-12-20T13:51:54;9.67;;;2.30;;
11854;SDS011;5987;53.140;8.904;2023-12-20T13:54:59;13.00;;;2.20;;
11854;SDS011;5987;53.140;8.904;2023-12-20T13:58:04;6.93;;;1.70;;
11854;SDS011;5987;53.140;8.904;2023-12-20T14:01:09;10.00;;;1.70;;
11854;SDS011;5987;53.140;8.904;2023-12-20T14:04:13;5.53;;;1.13;;
11854;SDS011;5987;53.140;8.904;2023-12-20T14:07:37;7.03;;;1.33;;
11854;SDS011;5987;53.140;8.904;2023-12-20T14:10:41;10.73;;;1.73;;
11854;SDS011;5987;53.140;8.904;2023-12-20T14:13:46;7.47;;;1.67;;
11854;SDS011;5987;53.140;8.904;2023-12-20T14:16:50;7.53;;;1.30;;
11854;SDS011;5987;53.140;8.904;2023-12-20T14:19:54;7.30;;;1.43;;
11854;SDS011;5987;53.140;8.904;2023-12-20T14:22:58;7.03;;;1.97;;
11854;SDS011;5987;53.140;8.904;2023-12-20T14:26:02;9.27;;;1.80;;
11854;SDS011;5987;53.140;8.904;2023-12-20T14:29:07;5.77;;;2.03;;
11854;SDS011;5987;53.140;8.904;2023-12-20T14:32:11;9.27;;;1.50;;
11854;SDS011;5987;53.140;8.904;2023-12-20T14:35:16;13.07;;;2.37;;
11854;SDS011;5987;53.140;8.904;2023-12-20T14:38:21;9.17;;;1.93;;
11854;SDS011;5987;53.140;8.904;2023-12-20T14:41:25;9.40;;;2.07;;
11854;SDS011;5987;53.140;8.904;2023-12-20T14:44:34;10.60;;;3.43;;
11854;SDS011;5987;53.140;8.904;2023-12-20T14:47:37;5.47;;;1.70;;
11854;SDS011;5987;53.140;8.904;2023-12-20T14:50:42;7.80;;;2.07;;
11854;SDS011;5987;53.140;8.904;2023-12-20T14:53:48;7.03;;;1.47;;
11854;SDS011;5987;53.140;8.904;2023-12-20T14:56:52;7.63;;;1.60;;
11854;SDS011;5987;53.140;8.904;2023-12-20T14:59:57;10.87;;;2.33;;
11854;SDS011;5987;53.140;8.904;2023-12-20T15:03:01;6.47;;;1.53;;
11854;SDS011;5987;53.140;8.904;2023-12-20T15:06:06;5.57;;;2.00;;
11854;SDS011;5987;53.140;8.904;2023-12-20T15:09:13;6.53;;;2.40;;
11854;SDS011;5987;53.140;8.904;2023-12-20T15:12:17;8.80;;;2.17;;
11854;SDS011;5987;53.140;8.904;2023-12-20T15:15:22;11.30;;;3.10;;
11854;SDS011;5987;53.140;8.904;2023-12-20T15:18:26;5.57;;;1.27;;
11854;SDS011;5987;53.140;8.904;2023-12-20T15:21:32;9.07;;;2.00;;
11854;SDS011;5987;53.140;8.904;2023-12-20T15:24:45;8.10;;;1.63;;
11854;SDS011;5987;53.140;8.904;2023-12-20T15:27:49;2.20;;;1.30;;
11854;SDS011;5987;53.140;8.904;2023-12-20T15:30:56;4.07;;;1.10;;
11854;SDS011;5987;53.140;8.904;2023-12-20T15:34:00;6.00;;;2.03;;
11854;SDS011;5987;53.140;8.904;2023-12-20T15:37:04;7.13;;;1.70;;
11854;SDS011;5987;53.140;8.904;2023-12-20T15:40:09;3.13;;;1.30;;
11854;SDS011;5987;53.140;8.904;2023-12-20T15:43:14;8.90;;;2.13;;
11854;SDS011;5987;53.140;8.904;2023-12-20T15:46:19;9.87;;;1.40;;
11854;SDS011;5987;53.140;8.904;2023-12-20T15:49:24;5.23;;;1.30;;
11854;SDS011;5987;53.140;8.904;2023-12-20T15:52:28;4.27;;;1.27;;
11854;SDS011;5987;53.140;8.904;2023-12-20T15:55:31;3.10;;;1.37;;
11854;SDS011;5987;53.140;8.904;2023-12-20T15:58:35;7.50;;;1.70;;
11854;SDS011;5987;53.140;8.904;2023-12-20T16:01:40;4.70;;;1.53;;
11854;SDS011;5987;53.140;8.904;2023-12-20T16:04:54;3.63;;;1.70;;
11854;SDS011;5987;53.140;8.904;2023-12-20T16:07:58;6.23;;;1.70;;
11854;SDS011;5987;53.140;8.904;2023-12-20T16:11:01;12.10;;;2.33;;
11854;SDS011;5987;53.140;8.904;2023-12-20T16:14:06;6.43;;;1.87;;
11854;SDS011;5987;53.140;8.904;2023-12-20T16:17:12;7.03;;;2.57;;
11854;SDS011;5987;53.140;8.904;2023-12-20T16:20:17;6.63;;;2.43;;
11854;SDS011;5987;53.140;8.904;2023-12-20T16:23:21;8.40;;;2.07;;
11854;SDS011;5987;53.140;8.904;2023-12-20T16:26:25;6.90;;;1.97;;
11854;SDS011;5987;53.140;8.904;2023-12-20T16:29:30;7.87;;;1.93;;
11854;SDS011;5987;53.140;8.904;2023-12-20T16:32:35;9.10;;;2.07;;
11854;SDS011;5987;53.140;8.904;2023-12-20T16:35:39;10.93;;;2.40;;
11854;SDS011;5987;53.140;8.904;2023-12-20T16:38:42;3.73;;;1.90;;
11854;SDS011;5987;53.140;8.904;2023-12-20T16:41:46;8.17;;;2.27;;
11854;SDS011;5987;53.140;8.904;2023-12-20T16:44:50;3.63;;;1.00;;
11854;SDS011;5987;53.140;8.904;2023-12-20T16:47:55;4.73;;;1.50;;
11854;SDS011;5987;53.140;8.904;2023-12-20T16:50:59;4.73;;;1.30;;
11854;SDS011;5987;53.140;8.904;2023-12-20T16:54:03;3.70;;;1.13;;
11854;SDS011;5987;53.140;8.904;2023-12-20T16:57:07;2.37;;;0.67;;
11854;SDS011;5987;53.140;8.904;2023-12-20T17:00:12;2.23;;;1.00;;
11854;SDS011;5987;53.140;8.904;2023-12-20T17:03:19;4.77;;;0.73;;
11854;SDS011;5987;53.140;8.904;2023-12-20T17:06:26;3.87;;;0.90;;
11854;SDS011;5987;53.140;8.904;2023-12-20T17:09:30;3.90;;;1.40;;
11854;SDS011;5987;53.140;8.904;2023-12-20T17:12:34;1.63;;;1.37;;
11854;SDS011;5987;53.140;8.904;2023-12-20T17:15:38;5.83;;;1.93;;
11854;SDS011;5987;53.140;8.904;2023-12-20T17:18:44;6.50;;;1.90;;
11854;SDS011;5987;53.140;8.904;2023-12-20T17:21:50;7.17;;;1.80;;
11854;SDS011;5987;53.140;8.904;2023-12-20T17:24:54;6.87;;;1.67;;
11854;SDS011;5987;53.140;8.904;2023-12-20T17:27:58;6.77;;;1.43;;
11854;SDS011;5987;53.140;8.904;2023-12-20T17:31:02;4.60;;;1.20;;
11854;SDS011;5987;53.140;8.904;2023-12-20T17:34:18;7.43;;;1.55;;
11854;SDS011;5987;53.140;8.904;2023-12-20T17:37:22;5.87;;;1.10;;
11854;SDS011;5987;53.140;8.904;2023-12-20T17:40:26;3.43;;;1.13;;
11854;SDS011;5987;53.140;8.904;2023-12-20T17:43:30;1.87;;;1.00;;
11854;SDS011;5987;53.140;8.904;2023-12-20T17:46:34;3.30;;;0.90;;
11854;SDS011;5987;53.140;8.904;2023-12-20T17:49:39;5.27;;;1.10;;
11854;SDS011;5987;53.140;8.904;2023-12-20T17:52:43;3.93;;;1.10;;
11854;SDS011;5987;53.140;8.904;2023-12-20T17:55:47;4.10;;;1.23;;
11854;SDS011;5987;53.140;8.904;2023-12-20T17:58:51;9.37;;;1.70;;
11854;SDS011;5987;53.140;8.904;2023-12-20T18:01:55;4.67;;;1.00;;
11854;SDS011;5987;53.140;8.904;2023-12-20T18:05:01;9.80;;;2.30;;
11854;SDS011;5987;53.140;8.904;2023-12-20T18:08:05;13.20;;;2.47;;
11854;SDS011;5987;53.140;8.904;2023-12-20T18:11:10;8.17;;;1.93;;
11854;SDS011;5987;53.140;8.904;2023-12-20T18:14:14;5.37;;;2.53;;
11854;SDS011;5987;53.140;8.904;2023-12-20T18:17:18;11.53;;;1.50;;
11854;SDS011;5987;53.140;8.904;2023-12-20T18:20:23;7.73;;;1.83;;
11854;SDS011;5987;53.140;8.904;2023-12-20T18:23:27;8.37;;;1.97;;
11854;SDS011;5987;53.140;8.904;2023-12-20T18:26:31;12.90;;;3.07;;
11854;SDS011;5987;53.140;8.904;2023-12-20T18:29:37;4.43;;;1.50;;
11854;SDS011;5987;53.140;8.904;2023-12-20T18:32:41;10.23;;;2.03;;
11854;SDS011;5987;53.140;8.904;2023-12-20T18:35:47;8.20;;;3.33;;
11854;SDS011;5987;53.140;8.904;2023-12-20T18:38:51;10.93;;;2.23;;
11854;SDS011;5987;53.140;8.904;2023-12-20T18:41:55;5.57;;;2.07;;
11854;SDS011;5987;53.140;8.904;2023-12-20T18:44:59;6.13;;;2.07;;
11854;SDS011;5987;53.140;8.904;2023-12-20T18:48:05;7.37;;;1.90;;